Terminal Aerodrome Forecast
Issued by NWS

Home | Current Version | Previous Version | Graphics & Text | Print | Product List | Glossary On
Versions: 1 2 3 4 5 6 7 8 9 10 11 12 13 14 15 16 17 18 19 20 21 22 23 24 25 26
619
FTUS43 KLOT 250133 AAA
TAFDPA
TAF AMD
KDPA 250133Z 2502/2524 21008KT 3SM TSRA BKN025CB
     FM250230 32007KT P6SM BKN200
     FM251400 33008KT P6SM FEW050 SCT250=

USA.gov is the U.S. government's official web portal to all federal, state and local government web resources and services.